sensor_id;sensor_type;location;lat;lon;timestamp;P1;durP1;ratioP1;P2;durP2;ratioP2
13108;SDS011;6620;53.734;11.510;2023-04-24T00:00:10;3.13;;;1.50;;
13108;SDS011;6620;53.734;11.510;2023-04-24T00:02:37;3.03;;;1.55;;
13108;SDS011;6620;53.734;11.510;2023-04-24T00:05:05;2.05;;;1.83;;
13108;SDS011;6620;53.734;11.510;2023-04-24T00:07:31;5.38;;;1.48;;
13108;SDS011;6620;53.734;11.510;2023-04-24T00:09:57;3.00;;;1.55;;
13108;SDS011;6620;53.734;11.510;2023-04-24T00:12:22;1.67;;;1.58;;
13108;SDS011;6620;53.734;11.510;2023-04-24T00:14:47;1.90;;;1.60;;
13108;SDS011;6620;53.734;11.510;2023-04-24T00:17:12;1.50;;;1.40;;
13108;SDS011;6620;53.734;11.510;2023-04-24T00:19:38;1.75;;;1.60;;
13108;SDS011;6620;53.734;11.510;2023-04-24T00:22:03;1.77;;;1.67;;
13108;SDS011;6620;53.734;11.510;2023-04-24T00:24:28;2.03;;;1.40;;
13108;SDS011;6620;53.734;11.510;2023-04-24T00:26:53;1.77;;;1.30;;
13108;SDS011;6620;53.734;11.510;2023-04-24T00:29:19;3.20;;;1.60;;
13108;SDS011;6620;53.734;11.510;2023-04-24T00:31:44;1.45;;;1.35;;
13108;SDS011;6620;53.734;11.510;2023-04-24T00:34:09;1.70;;;1.60;;
13108;SDS011;6620;53.734;11.510;2023-04-24T00:36:36;1.70;;;1.60;;
13108;SDS011;6620;53.734;11.510;2023-04-24T00:39:01;2.70;;;2.45;;
13108;SDS011;6620;53.734;11.510;2023-04-24T00:41:27;1.95;;;1.77;;
13108;SDS011;6620;53.734;11.510;2023-04-24T00:43:52;3.72;;;1.77;;
13108;SDS011;6620;53.734;11.510;2023-04-24T00:46:17;1.65;;;1.52;;
13108;SDS011;6620;53.734;11.510;2023-04-24T00:48:43;1.70;;;1.60;;
13108;SDS011;6620;53.734;11.510;2023-04-24T00:51:09;3.03;;;1.80;;
13108;SDS011;6620;53.734;11.510;2023-04-24T00:53:34;2.05;;;1.70;;
13108;SDS011;6620;53.734;11.510;2023-04-24T00:55:59;1.90;;;1.70;;
13108;SDS011;6620;53.734;11.510;2023-04-24T00:58:25;2.03;;;1.73;;
13108;SDS011;6620;53.734;11.510;2023-04-24T01:00:51;1.95;;;1.80;;
13108;SDS011;6620;53.734;11.510;2023-04-24T01:03:18;2.55;;;2.30;;
13108;SDS011;6620;53.734;11.510;2023-04-24T01:05:43;5.75;;;2.20;;
13108;SDS011;6620;53.734;11.510;2023-04-24T01:08:09;1.83;;;1.73;;
13108;SDS011;6620;53.734;11.510;2023-04-24T01:10:34;1.90;;;1.70;;
13108;SDS011;6620;53.734;11.510;2023-04-24T01:13:01;4.80;;;2.10;;
13108;SDS011;6620;53.734;11.510;2023-04-24T01:15:26;2.25;;;1.63;;
13108;SDS011;6620;53.734;11.510;2023-04-24T01:17:52;3.43;;;2.17;;
13108;SDS011;6620;53.734;11.510;2023-04-24T01:20:17;2.17;;;1.95;;
13108;SDS011;6620;53.734;11.510;2023-04-24T01:22:42;2.33;;;2.10;;
13108;SDS011;6620;53.734;11.510;2023-04-24T01:25:08;3.33;;;2.42;;
13108;SDS011;6620;53.734;11.510;2023-04-24T01:27:33;2.50;;;1.90;;
13108;SDS011;6620;53.734;11.510;2023-04-24T01:29:58;2.40;;;2.17;;
13108;SDS011;6620;53.734;11.510;2023-04-24T01:32:24;3.25;;;2.00;;
13108;SDS011;6620;53.734;11.510;2023-04-24T01:34:49;2.30;;;2.10;;
13108;SDS011;6620;53.734;11.510;2023-04-24T01:37:15;2.50;;;2.30;;
13108;SDS011;6620;53.734;11.510;2023-04-24T01:39:41;2.47;;;2.28;;
13108;SDS011;6620;53.734;11.510;2023-04-24T01:42:06;2.90;;;2.27;;
13108;SDS011;6620;53.734;11.510;2023-04-24T01:44:33;2.53;;;2.33;;
13108;SDS011;6620;53.734;11.510;2023-04-24T01:46:58;2.38;;;2.15;;
13108;SDS011;6620;53.734;11.510;2023-04-24T01:49:23;2.67;;;2.30;;
13108;SDS011;6620;53.734;11.510;2023-04-24T01:51:48;3.10;;;2.90;;
13108;SDS011;6620;53.734;11.510;2023-04-24T01:54:13;3.90;;;2.72;;
13108;SDS011;6620;53.734;11.510;2023-04-24T01:56:42;3.53;;;2.80;;
13108;SDS011;6620;53.734;11.510;2023-04-24T01:59:07;3.42;;;2.75;;
13108;SDS011;6620;53.734;11.510;2023-04-24T02:01:34;3.33;;;3.00;;
13108;SDS011;6620;53.734;11.510;2023-04-24T02:04:00;3.20;;;2.65;;
13108;SDS011;6620;53.734;11.510;2023-04-24T02:06:26;4.20;;;3.03;;
13108;SDS011;6620;53.734;11.510;2023-04-24T02:08:51;3.30;;;3.00;;
13108;SDS011;6620;53.734;11.510;2023-04-24T02:11:16;2.83;;;2.63;;
13108;SDS011;6620;53.734;11.510;2023-04-24T02:13:41;3.17;;;2.80;;
13108;SDS011;6620;53.734;11.510;2023-04-24T02:16:06;2.93;;;2.40;;
13108;SDS011;6620;53.734;11.510;2023-04-24T02:18:31;5.35;;;2.63;;
13108;SDS011;6620;53.734;11.510;2023-04-24T02:20:57;3.65;;;2.78;;
13108;SDS011;6620;53.734;11.510;2023-04-24T02:23:22;2.67;;;2.47;;
13108;SDS011;6620;53.734;11.510;2023-04-24T02:25:47;3.08;;;2.85;;
13108;SDS011;6620;53.734;11.510;2023-04-24T02:28:13;2.70;;;2.50;;
13108;SDS011;6620;53.734;11.510;2023-04-24T02:30:38;3.28;;;2.30;;
13108;SDS011;6620;53.734;11.510;2023-04-24T02:33:04;3.50;;;2.65;;
13108;SDS011;6620;53.734;11.510;2023-04-24T02:35:29;2.45;;;2.25;;
13108;SDS011;6620;53.734;11.510;2023-04-24T02:37:55;2.92;;;2.40;;
13108;SDS011;6620;53.734;11.510;2023-04-24T02:40:20;2.80;;;2.30;;
13108;SDS011;6620;53.734;11.510;2023-04-24T02:42:45;4.80;;;2.90;;
13108;SDS011;6620;53.734;11.510;2023-04-24T02:45:10;2.50;;;2.22;;
13108;SDS011;6620;53.734;11.510;2023-04-24T02:47:35;2.70;;;2.33;;
13108;SDS011;6620;53.734;11.510;2023-04-24T02:50:01;3.27;;;2.97;;
13108;SDS011;6620;53.734;11.510;2023-04-24T02:52:27;2.13;;;2.03;;
13108;SDS011;6620;53.734;11.510;2023-04-24T02:54:52;3.80;;;2.47;;
13108;SDS011;6620;53.734;11.510;2023-04-24T02:57:18;2.33;;;2.13;;
13108;SDS011;6620;53.734;11.510;2023-04-24T02:59:44;3.73;;;2.33;;
13108;SDS011;6620;53.734;11.510;2023-04-24T03:02:09;2.92;;;2.72;;
13108;SDS011;6620;53.734;11.510;2023-04-24T03:04:34;3.17;;;2.42;;
13108;SDS011;6620;53.734;11.510;2023-04-24T03:06:59;2.80;;;2.60;;
13108;SDS011;6620;53.734;11.510;2023-04-24T03:09:26;2.50;;;2.30;;
13108;SDS011;6620;53.734;11.510;2023-04-24T03:11:51;3.58;;;2.67;;
13108;SDS011;6620;53.734;11.510;2023-04-24T03:14:16;2.72;;;2.53;;
13108;SDS011;6620;53.734;11.510;2023-04-24T03:16:41;3.20;;;3.00;;
13108;SDS011;6620;53.734;11.510;2023-04-24T03:19:07;3.40;;;2.70;;
13108;SDS011;6620;53.734;11.510;2023-04-24T03:21:32;2.97;;;2.67;;
13108;SDS011;6620;53.734;11.510;2023-04-24T03:23:57;2.72;;;2.53;;
13108;SDS011;6620;53.734;11.510;2023-04-24T03:26:23;3.40;;;2.40;;
13108;SDS011;6620;53.734;11.510;2023-04-24T03:28:48;3.53;;;3.25;;
13108;SDS011;6620;53.734;11.510;2023-04-24T03:31:13;2.80;;;2.60;;
13108;SDS011;6620;53.734;11.510;2023-04-24T03:33:40;3.70;;;2.75;;
13108;SDS011;6620;53.734;11.510;2023-04-24T03:36:05;3.10;;;2.80;;
13108;SDS011;6620;53.734;11.510;2023-04-24T03:38:30;4.22;;;3.53;;
13108;SDS011;6620;53.734;11.510;2023-04-24T03:40:55;3.92;;;2.83;;
13108;SDS011;6620;53.734;11.510;2023-04-24T03:43:21;3.17;;;2.83;;
13108;SDS011;6620;53.734;11.510;2023-04-24T03:45:46;4.05;;;2.95;;
13108;SDS011;6620;53.734;11.510;2023-04-24T03:48:11;3.55;;;3.25;;
13108;SDS011;6620;53.734;11.510;2023-04-24T03:50:36;7.27;;;2.87;;
13108;SDS011;6620;53.734;11.510;2023-04-24T03:53:01;3.30;;;3.00;;
13108;SDS011;6620;53.734;11.510;2023-04-24T03:55:27;4.23;;;3.40;;
13108;SDS011;6620;53.734;11.510;2023-04-24T03:57:52;3.03;;;2.73;;
13108;SDS011;6620;53.734;11.510;2023-04-24T04:00:17;3.90;;;3.20;;
13108;SDS011;6620;53.734;11.510;2023-04-24T04:02:43;3.83;;;3.50;;
13108;SDS011;6620;53.734;11.510;2023-04-24T04:05:08;3.47;;;2.60;;
13108;SDS011;6620;53.734;11.510;2023-04-24T04:07:33;3.47;;;3.07;;
13108;SDS011;6620;53.734;11.510;2023-04-24T04:09:59;4.43;;;3.30;;
13108;SDS011;6620;53.734;11.510;2023-04-24T04:12:24;3.55;;;3.25;;
13108;SDS011;6620;53.734;11.510;2023-04-24T04:14:49;3.67;;;3.37;;
13108;SDS011;6620;53.734;11.510;2023-04-24T04:17:15;5.35;;;3.10;;
13108;SDS011;6620;53.734;11.510;2023-04-24T04:19:40;4.80;;;3.80;;
13108;SDS011;6620;53.734;11.510;2023-04-24T04:22:05;4.70;;;3.35;;
13108;SDS011;6620;53.734;11.510;2023-04-24T04:24:32;5.07;;;3.42;;
13108;SDS011;6620;53.734;11.510;2023-04-24T04:26:58;5.40;;;3.45;;
13108;SDS011;6620;53.734;11.510;2023-04-24T04:29:24;3.60;;;3.20;;
13108;SDS011;6620;53.734;11.510;2023-04-24T04:31:49;3.42;;;3.13;;
13108;SDS011;6620;53.734;11.510;2023-04-24T04:34:14;3.75;;;3.38;;
13108;SDS011;6620;53.734;11.510;2023-04-24T04:36:40;3.07;;;2.77;;
13108;SDS011;6620;53.734;11.510;2023-04-24T04:39:06;3.45;;;3.15;;
13108;SDS011;6620;53.734;11.510;2023-04-24T04:41:31;3.42;;;3.20;;
13108;SDS011;6620;53.734;11.510;2023-04-24T04:43:57;5.55;;;3.17;;
13108;SDS011;6620;53.734;11.510;2023-04-24T04:46:23;3.10;;;2.80;;
13108;SDS011;6620;53.734;11.510;2023-04-24T04:48:51;3.08;;;2.45;;
13108;SDS011;6620;53.734;11.510;2023-04-24T04:51:16;3.33;;;3.03;;
13108;SDS011;6620;53.734;11.510;2023-04-24T04:53:41;3.42;;;2.70;;
13108;SDS011;6620;53.734;11.510;2023-04-24T04:56:06;2.97;;;2.53;;
13108;SDS011;6620;53.734;11.510;2023-04-24T04:58:32;3.67;;;2.50;;
13108;SDS011;6620;53.734;11.510;2023-04-24T05:00:58;3.40;;;2.22;;
13108;SDS011;6620;53.734;11.510;2023-04-24T05:03:23;3.40;;;2.00;;
13108;SDS011;6620;53.734;11.510;2023-04-24T05:05:48;2.40;;;2.25;;
13108;SDS011;6620;53.734;11.510;2023-04-24T05:08:14;2.10;;;1.90;;
13108;SDS011;6620;53.734;11.510;2023-04-24T05:10:39;2.17;;;1.98;;
13108;SDS011;6620;53.734;11.510;2023-04-24T05:13:04;2.90;;;2.15;;
13108;SDS011;6620;53.734;11.510;2023-04-24T05:15:30;2.28;;;1.98;;
13108;SDS011;6620;53.734;11.510;2023-04-24T05:17:55;2.63;;;2.00;;
13108;SDS011;6620;53.734;11.510;2023-04-24T05:20:20;2.10;;;2.00;;
13108;SDS011;6620;53.734;11.510;2023-04-24T05:22:45;2.22;;;2.03;;
13108;SDS011;6620;53.734;11.510;2023-04-24T05:25:11;2.80;;;2.10;;
13108;SDS011;6620;53.734;11.510;2023-04-24T05:27:37;2.03;;;1.80;;
13108;SDS011;6620;53.734;11.510;2023-04-24T05:30:02;1.60;;;1.50;;
13108;SDS011;6620;53.734;11.510;2023-04-24T05:32:27;2.60;;;1.90;;
13108;SDS011;6620;53.734;11.510;2023-04-24T05:34:53;4.70;;;1.88;;
13108;SDS011;6620;53.734;11.510;2023-04-24T05:37:18;1.52;;;1.42;;
13108;SDS011;6620;53.734;11.510;2023-04-24T05:39:43;2.22;;;1.83;;
13108;SDS011;6620;53.734;11.510;2023-04-24T05:42:08;1.73;;;1.63;;
13108;SDS011;6620;53.734;11.510;2023-04-24T05:44:34;3.93;;;1.60;;
13108;SDS011;6620;53.734;11.510;2023-04-24T05:46:59;1.33;;;1.23;;
13108;SDS011;6620;53.734;11.510;2023-04-24T05:49:24;3.10;;;1.40;;
13108;SDS011;6620;53.734;11.510;2023-04-24T05:51:49;1.20;;;1.10;;
13108;SDS011;6620;53.734;11.510;2023-04-24T05:54:14;1.77;;;1.20;;
13108;SDS011;6620;53.734;11.510;2023-04-24T05:56:40;1.30;;;1.20;;
13108;SDS011;6620;53.734;11.510;2023-04-24T05:59:05;0.93;;;0.85;;
13108;SDS011;6620;53.734;11.510;2023-04-24T06:01:30;3.15;;;1.45;;
13108;SDS011;6620;53.734;11.510;2023-04-24T06:03:56;1.40;;;0.90;;
13108;SDS011;6620;53.734;11.510;2023-04-24T06:06:21;1.02;;;1.00;;
13108;SDS011;6620;53.734;11.510;2023-04-24T06:08:46;2.72;;;1.73;;
13108;SDS011;6620;53.734;11.510;2023-04-24T06:11:12;1.20;;;0.93;;
13108;SDS011;6620;53.734;11.510;2023-04-24T06:13:37;1.73;;;0.80;;
13108;SDS011;6620;53.734;11.510;2023-04-24T06:16:02;1.70;;;0.97;;
13108;SDS011;6620;53.734;11.510;2023-04-24T06:18:27;1.23;;;1.10;;
13108;SDS011;6620;53.734;11.510;2023-04-24T06:20:52;1.07;;;1.00;;
13108;SDS011;6620;53.734;11.510;2023-04-24T06:23:17;1.73;;;0.80;;
13108;SDS011;6620;53.734;11.510;2023-04-24T06:25:43;0.85;;;0.85;;
13108;SDS011;6620;53.734;11.510;2023-04-24T06:28:08;1.50;;;0.70;;
13108;SDS011;6620;53.734;11.510;2023-04-24T06:30:33;1.20;;;1.07;;
13108;SDS011;6620;53.734;11.510;2023-04-24T06:32:58;2.05;;;0.90;;
13108;SDS011;6620;53.734;11.510;2023-04-24T06:35:23;1.00;;;0.80;;
13108;SDS011;6620;53.734;11.510;2023-04-24T06:37:49;1.92;;;0.80;;
13108;SDS011;6620;53.734;11.510;2023-04-24T06:40:14;1.30;;;1.17;;
13108;SDS011;6620;53.734;11.510;2023-04-24T06:42:39;1.08;;;0.82;;
13108;SDS011;6620;53.734;11.510;2023-04-24T06:45:05;0.82;;;0.82;;
13108;SDS011;6620;53.734;11.510;2023-04-24T06:47:30;1.33;;;0.98;;
13108;SDS011;6620;53.734;11.510;2023-04-24T06:49:56;1.08;;;0.98;;
13108;SDS011;6620;53.734;11.510;2023-04-24T06:52:21;0.70;;;0.70;;
13108;SDS011;6620;53.734;11.510;2023-04-24T06:54:46;2.17;;;0.80;;
13108;SDS011;6620;53.734;11.510;2023-04-24T06:57:11;1.50;;;0.98;;
13108;SDS011;6620;53.734;11.510;2023-04-24T06:59:37;0.93;;;0.82;;
13108;SDS011;6620;53.734;11.510;2023-04-24T07:02:02;0.90;;;0.90;;
13108;SDS011;6620;53.734;11.510;2023-04-24T07:04:28;0.80;;;0.70;;
13108;SDS011;6620;53.734;11.510;2023-04-24T07:06:53;1.85;;;0.73;;
13108;SDS011;6620;53.734;11.510;2023-04-24T07:09:23;1.40;;;0.85;;
13108;SDS011;6620;53.734;11.510;2023-04-24T07:11:49;1.88;;;1.00;;
13108;SDS011;6620;53.734;11.510;2023-04-24T07:14:14;0.80;;;0.80;;
13108;SDS011;6620;53.734;11.510;2023-04-24T07:16:39;0.55;;;0.55;;
13108;SDS011;6620;53.734;11.510;2023-04-24T07:19:04;0.70;;;0.70;;
13108;SDS011;6620;53.734;11.510;2023-04-24T07:21:30;0.88;;;0.70;;
13108;SDS011;6620;53.734;11.510;2023-04-24T07:23:57;0.73;;;0.60;;
13108;SDS011;6620;53.734;11.510;2023-04-24T07:26:22;1.35;;;0.80;;
13108;SDS011;6620;53.734;11.510;2023-04-24T07:28:47;1.42;;;0.60;;
13108;SDS011;6620;53.734;11.510;2023-04-24T07:31:12;4.72;;;0.70;;
13108;SDS011;6620;53.734;11.510;2023-04-24T07:33:37;1.15;;;0.90;;
13108;SDS011;6620;53.734;11.510;2023-04-24T07:36:03;0.70;;;0.55;;
13108;SDS011;6620;53.734;11.510;2023-04-24T07:38:31;3.03;;;0.80;;
13108;SDS011;6620;53.734;11.510;2023-04-24T07:40:57;1.17;;;0.55;;
13108;SDS011;6620;53.734;11.510;2023-04-24T07:43:22;1.23;;;0.73;;
13108;SDS011;6620;53.734;11.510;2023-04-24T07:45:48;0.52;;;0.52;;
13108;SDS011;6620;53.734;11.510;2023-04-24T07:48:14;0.43;;;0.43;;
13108;SDS011;6620;53.734;11.510;2023-04-24T07:50:41;0.45;;;0.45;;
13108;SDS011;6620;53.734;11.510;2023-04-24T07:53:06;0.60;;;0.60;;
13108;SDS011;6620;53.734;11.510;2023-04-24T07:55:31;0.83;;;0.40;;
13108;SDS011;6620;53.734;11.510;2023-04-24T07:57:56;1.13;;;0.50;;
13108;SDS011;6620;53.734;11.510;2023-04-24T08:00:22;0.68;;;0.60;;
13108;SDS011;6620;53.734;11.510;2023-04-24T08:02:47;0.50;;;0.50;;
13108;SDS011;6620;53.734;11.510;2023-04-24T08:05:12;0.53;;;0.53;;
13108;SDS011;6620;53.734;11.510;2023-04-24T08:07:38;0.73;;;0.60;;
13108;SDS011;6620;53.734;11.510;2023-04-24T08:10:03;1.52;;;0.40;;
13108;SDS011;6620;53.734;11.510;2023-04-24T08:12:28;1.27;;;0.63;;
13108;SDS011;6620;53.734;11.510;2023-04-24T08:14:54;2.28;;;0.90;;
13108;SDS011;6620;53.734;11.510;2023-04-24T08:17:19;2.72;;;0.63;;
13108;SDS011;6620;53.734;11.510;2023-04-24T08:19:44;0.80;;;0.60;;
13108;SDS011;6620;53.734;11.510;2023-04-24T08:22:13;0.50;;;0.50;;
13108;SDS011;6620;53.734;11.510;2023-04-24T08:24:38;0.68;;;0.50;;
13108;SDS011;6620;53.734;11.510;2023-04-24T08:27:03;0.40;;;0.37;;
13108;SDS011;6620;53.734;11.510;2023-04-24T08:29:28;0.63;;;0.32;;
13108;SDS011;6620;53.734;11.510;2023-04-24T08:31:54;3.20;;;0.43;;
13108;SDS011;6620;53.734;11.510;2023-04-24T08:34:19;0.38;;;0.38;;
13108;SDS011;6620;53.734;11.510;2023-04-24T08:36:45;0.73;;;0.47;;
13108;SDS011;6620;53.734;11.510;2023-04-24T08:39:10;0.80;;;0.40;;
13108;SDS011;6620;53.734;11.510;2023-04-24T08:41:35;0.52;;;0.45;;
13108;SDS011;6620;53.734;11.510;2023-04-24T08:44:01;0.50;;;0.50;;
13108;SDS011;6620;53.734;11.510;2023-04-24T08:46:26;0.50;;;0.50;;
13108;SDS011;6620;53.734;11.510;2023-04-24T08:48:52;1.10;;;0.52;;
13108;SDS011;6620;53.734;11.510;2023-04-24T08:51:17;0.30;;;0.30;;
13108;SDS011;6620;53.734;11.510;2023-04-24T08:53:43;0.77;;;0.52;;
13108;SDS011;6620;53.734;11.510;2023-04-24T08:56:08;0.57;;;0.40;;
13108;SDS011;6620;53.734;11.510;2023-04-24T08:58:34;0.82;;;0.70;;
13108;SDS011;6620;53.734;11.510;2023-04-24T09:01:00;0.90;;;0.40;;
13108;SDS011;6620;53.734;11.510;2023-04-24T09:03:27;1.05;;;0.32;;
13108;SDS011;6620;53.734;11.510;2023-04-24T09:05:52;2.92;;;0.77;;
13108;SDS011;6620;53.734;11.510;2023-04-24T09:08:19;1.65;;;0.60;;
13108;SDS011;6620;53.734;11.510;2023-04-24T09:10:45;2.42;;;0.63;;
13108;SDS011;6620;53.734;11.510;2023-04-24T09:13:10;0.88;;;0.43;;
13108;SDS011;6620;53.734;11.510;2023-04-24T09:15:36;1.88;;;0.60;;
13108;SDS011;6620;53.734;11.510;2023-04-24T09:18:02;0.60;;;0.60;;
13108;SDS011;6620;53.734;11.510;2023-04-24T09:20:27;1.95;;;0.88;;
13108;SDS011;6620;53.734;11.510;2023-04-24T09:22:56;0.57;;;0.40;;
13108;SDS011;6620;53.734;11.510;2023-04-24T09:25:22;1.33;;;0.60;;
13108;SDS011;6620;53.734;11.510;2023-04-24T09:27:47;0.50;;;0.50;;
13108;SDS011;6620;53.734;11.510;2023-04-24T09:30:12;1.50;;;0.70;;
13108;SDS011;6620;53.734;11.510;2023-04-24T09:32:38;0.52;;;0.52;;
13108;SDS011;6620;53.734;11.510;2023-04-24T09:35:07;1.67;;;0.38;;
13108;SDS011;6620;53.734;11.510;2023-04-24T09:37:43;0.40;;;0.40;;
13108;SDS011;6620;53.734;11.510;2023-04-24T09:42:35;0.82;;;0.50;;
13108;SDS011;6620;53.734;11.510;2023-04-24T09:45:01;0.60;;;0.50;;
13108;SDS011;6620;53.734;11.510;2023-04-24T09:47:26;0.85;;;0.40;;
13108;SDS011;6620;53.734;11.510;2023-04-24T09:50:11;0.83;;;0.30;;
13108;SDS011;6620;53.734;11.510;2023-04-24T09:52:39;0.30;;;0.30;;
13108;SDS011;6620;53.734;11.510;2023-04-24T09:55:10;1.27;;;0.40;;
13108;SDS011;6620;53.734;11.510;2023-04-24T09:57:35;0.43;;;0.22;;
13108;SDS011;6620;53.734;11.510;2023-04-24T10:00:03;0.73;;;0.47;;
13108;SDS011;6620;53.734;11.510;2023-04-24T10:02:30;2.92;;;0.60;;
13108;SDS011;6620;53.734;11.510;2023-04-24T10:04:56;1.15;;;0.30;;
13108;SDS011;6620;53.734;11.510;2023-04-24T10:07:26;1.38;;;0.30;;
13108;SDS011;6620;53.734;11.510;2023-04-24T10:09:52;0.73;;;0.30;;
13108;SDS011;6620;53.734;11.510;2023-04-24T10:12:17;1.08;;;0.70;;
13108;SDS011;6620;53.734;11.510;2023-04-24T10:14:42;0.57;;;0.40;;
13108;SDS011;6620;53.734;11.510;2023-04-24T10:17:08;0.40;;;0.30;;
13108;SDS011;6620;53.734;11.510;2023-04-24T10:19:33;1.67;;;0.20;;
13108;SDS011;6620;53.734;11.510;2023-04-24T10:21:58;0.30;;;0.30;;
13108;SDS011;6620;53.734;11.510;2023-04-24T10:24:24;1.98;;;0.40;;
13108;SDS011;6620;53.734;11.510;2023-04-24T10:26:49;0.63;;;0.20;;
13108;SDS011;6620;53.734;11.510;2023-04-24T10:29:16;0.50;;;0.40;;
13108;SDS011;6620;53.734;11.510;2023-04-24T10:31:41;0.95;;;0.40;;
13108;SDS011;6620;53.734;11.510;2023-04-24T10:34:10;1.60;;;0.28;;
13108;SDS011;6620;53.734;11.510;2023-04-24T10:36:36;0.40;;;0.25;;
13108;SDS011;6620;53.734;11.510;2023-04-24T10:39:05;0.75;;;0.38;;
13108;SDS011;6620;53.734;11.510;2023-04-24T10:41:31;1.88;;;0.30;;
13108;SDS011;6620;53.734;11.510;2023-04-24T10:46:35;0.52;;;0.25;;
13108;SDS011;6620;53.734;11.510;2023-04-24T10:49:03;1.42;;;0.40;;
13108;SDS011;6620;53.734;11.510;2023-04-24T10:51:44;0.43;;;0.38;;
13108;SDS011;6620;53.734;11.510;2023-04-24T10:54:24;1.02;;;0.50;;
13108;SDS011;6620;53.734;11.510;2023-04-24T10:56:50;0.50;;;0.50;;
13108;SDS011;6620;53.734;11.510;2023-04-24T10:59:26;1.05;;;0.63;;
13108;SDS011;6620;53.734;11.510;2023-04-24T11:01:55;1.55;;;0.43;;
13108;SDS011;6620;53.734;11.510;2023-04-24T11:04:30;0.50;;;0.30;;
13108;SDS011;6620;53.734;11.510;2023-04-24T11:06:56;0.20;;;0.20;;
13108;SDS011;6620;53.734;11.510;2023-04-24T11:09:21;1.15;;;0.32;;
13108;SDS011;6620;53.734;11.510;2023-04-24T11:11:47;0.53;;;0.33;;
13108;SDS011;6620;53.734;11.510;2023-04-24T11:14:15;0.25;;;0.25;;
13108;SDS011;6620;53.734;11.510;2023-04-24T11:19:09;2.17;;;0.33;;
13108;SDS011;6620;53.734;11.510;2023-04-24T11:21:42;2.13;;;0.38;;
13108;SDS011;6620;53.734;11.510;2023-04-24T11:24:50;0.35;;;0.20;;
13108;SDS011;6620;53.734;11.510;2023-04-24T11:27:05;0.30;;;0.30;;
13108;SDS011;6620;53.734;11.510;2023-04-24T11:29:40;0.32;;;0.32;;
13108;SDS011;6620;53.734;11.510;2023-04-24T11:35:12;0.30;;;0.30;;
13108;SDS011;6620;53.734;11.510;2023-04-24T11:37:45;0.82;;;0.35;;
13108;SDS011;6620;53.734;11.510;2023-04-24T11:40:16;2.70;;;0.40;;
13108;SDS011;6620;53.734;11.510;2023-04-24T11:42:43;1.05;;;0.93;;
13108;SDS011;6620;53.734;11.510;2023-04-24T11:45:18;1.08;;;0.40;;
13108;SDS011;6620;53.734;11.510;2023-04-24T11:47:44;0.30;;;0.30;;
13108;SDS011;6620;53.734;11.510;2023-04-24T11:50:17;0.40;;;0.40;;
13108;SDS011;6620;53.734;11.510;2023-04-24T11:52:43;1.38;;;0.70;;
13108;SDS011;6620;53.734;11.510;2023-04-24T11:57:51;0.70;;;0.57;;
13108;SDS011;6620;53.734;11.510;2023-04-24T12:00:21;0.55;;;0.55;;
13108;SDS011;6620;53.734;11.510;2023-04-24T12:02:47;1.13;;;0.50;;
13108;SDS011;6620;53.734;11.510;2023-04-24T12:05:22;0.93;;;0.68;;
13108;SDS011;6620;53.734;11.510;2023-04-24T12:07:48;0.70;;;0.70;;
13108;SDS011;6620;53.734;11.510;2023-04-24T12:10:13;2.08;;;1.00;;
13108;SDS011;6620;53.734;11.510;2023-04-24T12:12:39;0.50;;;0.50;;
13108;SDS011;6620;53.734;11.510;2023-04-24T12:15:08;0.52;;;0.52;;
13108;SDS011;6620;53.734;11.510;2023-04-24T12:17:34;0.95;;;0.60;;
13108;SDS011;6620;53.734;11.510;2023-04-24T12:20:03;2.00;;;0.70;;
13108;SDS011;6620;53.734;11.510;2023-04-24T12:25:14;1.08;;;0.98;;
13108;SDS011;6620;53.734;11.510;2023-04-24T12:27:39;0.60;;;0.60;;
13108;SDS011;6620;53.734;11.510;2023-04-24T12:30:05;1.02;;;1.02;;
13108;SDS011;6620;53.734;11.510;2023-04-24T12:32:30;2.85;;;0.95;;
13108;SDS011;6620;53.734;11.510;2023-04-24T12:34:56;2.65;;;0.80;;
13108;SDS011;6620;53.734;11.510;2023-04-24T12:37:25;1.85;;;0.80;;
13108;SDS011;6620;53.734;11.510;2023-04-24T12:42:26;1.30;;;0.93;;
13108;SDS011;6620;53.734;11.510;2023-04-24T12:44:55;1.30;;;1.20;;
13108;SDS011;6620;53.734;11.510;2023-04-24T12:47:20;0.88;;;0.88;;
13108;SDS011;6620;53.734;11.510;2023-04-24T12:49:46;4.10;;;1.40;;
13108;SDS011;6620;53.734;11.510;2023-04-24T12:52:11;1.27;;;1.03;;
13108;SDS011;6620;53.734;11.510;2023-04-24T12:54:36;3.05;;;1.15;;
13108;SDS011;6620;53.734;11.510;2023-04-24T12:57:01;1.67;;;1.57;;
13108;SDS011;6620;53.734;11.510;2023-04-24T12:59:26;1.73;;;1.30;;
13108;SDS011;6620;53.734;11.510;2023-04-24T13:01:52;1.67;;;1.53;;
13108;SDS011;6620;53.734;11.510;2023-04-24T13:04:17;1.70;;;1.60;;
13108;SDS011;6620;53.734;11.510;2023-04-24T13:06:42;1.50;;;1.40;;
13108;SDS011;6620;53.734;11.510;2023-04-24T13:09:07;1.70;;;1.60;;
13108;SDS011;6620;53.734;11.510;2023-04-24T13:11:34;2.92;;;2.00;;
13108;SDS011;6620;53.734;11.510;2023-04-24T13:13:59;2.25;;;1.90;;
13108;SDS011;6620;53.734;11.510;2023-04-24T13:16:24;2.17;;;1.98;;
13108;SDS011;6620;53.734;11.510;2023-04-24T13:18:49;4.90;;;2.47;;
13108;SDS011;6620;53.734;11.510;2023-04-24T13:21:15;1.95;;;1.85;;
13108;SDS011;6620;53.734;11.510;2023-04-24T13:23:40;2.20;;;2.00;;
13108;SDS011;6620;53.734;11.510;2023-04-24T13:26:06;3.47;;;1.80;;
13108;SDS011;6620;53.734;11.510;2023-04-24T13:28:32;3.10;;;2.17;;
13108;SDS011;6620;53.734;11.510;2023-04-24T13:30:57;2.03;;;1.90;;
13108;SDS011;6620;53.734;11.510;2023-04-24T13:33:23;2.40;;;2.20;;
13108;SDS011;6620;53.734;11.510;2023-04-24T13:35:48;3.90;;;2.15;;
13108;SDS011;6620;53.734;11.510;2023-04-24T13:38:13;1.80;;;1.70;;
13108;SDS011;6620;53.734;11.510;2023-04-24T13:40:38;2.15;;;1.95;;
13108;SDS011;6620;53.734;11.510;2023-04-24T13:43:04;2.08;;;1.98;;
13108;SDS011;6620;53.734;11.510;2023-04-24T13:45:29;2.38;;;2.17;;
13108;SDS011;6620;53.734;11.510;2023-04-24T13:47:54;2.72;;;2.10;;
13108;SDS011;6620;53.734;11.510;2023-04-24T13:50:20;0.93;;;0.90;;
13108;SDS011;6620;53.734;11.510;2023-04-24T13:52:45;1.77;;;1.52;;
13108;SDS011;6620;53.734;11.510;2023-04-24T13:55:10;2.30;;;1.60;;
13108;SDS011;6620;53.734;11.510;2023-04-24T13:57:36;2.88;;;2.10;;
13108;SDS011;6620;53.734;11.510;2023-04-24T14:00:01;1.45;;;1.33;;
13108;SDS011;6620;53.734;11.510;2023-04-24T14:02:28;1.50;;;1.40;;
13108;SDS011;6620;53.734;11.510;2023-04-24T14:04:54;1.58;;;1.48;;
13108;SDS011;6620;53.734;11.510;2023-04-24T14:07:19;1.50;;;1.23;;
13108;SDS011;6620;53.734;11.510;2023-04-24T14:09:44;2.73;;;1.30;;
13108;SDS011;6620;53.734;11.510;2023-04-24T14:12:09;4.80;;;1.85;;
13108;SDS011;6620;53.734;11.510;2023-04-24T14:14:35;1.38;;;1.10;;
13108;SDS011;6620;53.734;11.510;2023-04-24T14:17:00;2.00;;;1.90;;
13108;SDS011;6620;53.734;11.510;2023-04-24T14:19:25;1.00;;;1.00;;
13108;SDS011;6620;53.734;11.510;2023-04-24T14:21:50;2.53;;;1.27;;
13108;SDS011;6620;53.734;11.510;2023-04-24T14:24:15;1.00;;;1.00;;
13108;SDS011;6620;53.734;11.510;2023-04-24T14:26:41;0.93;;;0.90;;
13108;SDS011;6620;53.734;11.510;2023-04-24T14:29:06;2.75;;;1.23;;
13108;SDS011;6620;53.734;11.510;2023-04-24T14:31:31;1.50;;;1.00;;
13108;SDS011;6620;53.734;11.510;2023-04-24T14:33:56;1.05;;;0.95;;
13108;SDS011;6620;53.734;11.510;2023-04-24T14:36:22;0.80;;;0.68;;
13108;SDS011;6620;53.734;11.510;2023-04-24T14:38:47;1.00;;;1.00;;
13108;SDS011;6620;53.734;11.510;2023-04-24T14:41:13;1.63;;;0.60;;
13108;SDS011;6620;53.734;11.510;2023-04-24T14:43:38;2.63;;;0.80;;
13108;SDS011;6620;53.734;11.510;2023-04-24T14:46:03;1.63;;;0.65;;
13108;SDS011;6620;53.734;11.510;2023-04-24T14:48:29;2.03;;;0.70;;
13108;SDS011;6620;53.734;11.510;2023-04-24T14:50:55;2.10;;;0.63;;
13108;SDS011;6620;53.734;11.510;2023-04-24T14:53:20;0.50;;;0.50;;
13108;SDS011;6620;53.734;11.510;2023-04-24T14:55:45;2.05;;;0.68;;
13108;SDS011;6620;53.734;11.510;2023-04-24T14:58:10;0.97;;;0.50;;